Latest Weather Observations for Nuriootpa

IDS60901

Issued at 5:11 pm CDT Monday 27 February 2017 (issued every 10 minutes, with the page automatically refreshed every 10 minutes)

About weather observations | Map of Adelaide area stations | Latest observations for Adelaide area | Other Formats
Station Details ID: 023373 Name: NURIOOTPA PIRSA Lat: -34.48 Lon: 139.01 Height: 275.0 m
Data from the previous 72 hours. | See also: Recent months at Nuriootpa
Date/Time
CDT
Temp
°C
App
Temp
°C
Dew
Point
°C
Rel
Hum
%
Delta-T
°C
Wind Press
QNH
hPa
Press
MSL
hPa
Rain since
9am
mm
Dir  Spd
km/h
Gust
km/h
Spd
kts
Gust
kts
27/05:00pm 33.6 30.6 7.5 20 14.6 NNE 13 19 7 10 1015.8 1014.6 0.0
27/04:30pm 34.0 31.3 7.3 19 14.9 NNE 11 19 6 10 1016.0 1014.8 0.0
27/04:00pm 34.2 30.6 5.1 16 15.7 NNE 13 22 7 12 1016.3 1015.2 0.0
27/03:30pm 33.5 29.3 7.6 20 14.5 NE 19 30 10 16 1016.5 1015.4 0.0
27/03:00pm 33.8 29.8 8.1 20 14.5 NE 19 32 10 17 1016.9 1015.8 0.0
27/02:30pm 33.8 30.1 9.3 22 14.1 ENE 19 32 10 17 1017.1 1016.0 0.0
27/02:00pm 33.3 29.3 9.2 22 13.8 ENE 20 30 11 16 1017.4 1016.3 0.0
27/01:30pm 32.4 29.2 10.1 25 12.9 ENE 17 28 9 15 1017.8 1016.7 0.0
27/01:00pm 31.7 29.3 10.2 26 12.4 NE 13 24 7 13 1018.2 1017.0 0.0
27/12:30pm 31.0 28.2 10.1 27 12.0 ENE 15 26 8 14 1018.4 1017.2 0.0
27/12:00pm 29.7 25.9 9.8 29 11.3 ENE 20 26 11 14 1018.6 1017.4 0.0
27/11:30am 29.0 25.5 10.2 31 10.7 ENE 19 26 10 14 1018.7 1017.5 0.0
27/11:00am 27.8 23.9 9.6 32 10.2 ENE 20 28 11 15 1018.9 1017.7 0.0
27/10:30am 27.1 23.7 9.1 32 10.0 ENE 17 28 9 15 1019.0 1017.8 0.0
27/10:00am 26.5 23.0 8.9 33 9.7 E 17 28 9 15 1019.1 1017.9 0.0
27/09:30am 25.1 22.1 9.3 36 8.7 E 15 26 8 14 1019.1 1017.9 0.0
27/09:00am 23.5 21.2 8.9 39 7.9 E 11 19 6 10 1019.0 1017.8 0.0
27/08:30am 22.5 20.6 7.7 38 7.8 NE 7 15 4 8 1018.8 1017.6 0.0
27/08:00am 20.7 18.8 7.7 43 6.8 ENE 7 13 4 7 1018.6 1017.4 0.0
27/07:30am 18.8 17.1 8.3 50 5.5 E 7 13 4 7 1018.5 1017.3 0.0
27/07:00am 18.4 16.3 8.2 51 5.3 ESE 9 15 5 8 1018.5 1017.3 0.0
27/06:30am 18.3 15.1 8.3 52 5.2 SE 15 22 8 12 1018.2 1017.0 0.0
27/06:00am 18.0 14.8 8.6 54 4.9 SE 15 22 8 12 1018.1 1016.9 0.0
27/05:30am 17.8 14.6 8.4 54 4.9 SE 15 22 8 12 1018.2 1017.0 0.0
27/05:00am 17.8 14.5 7.9 52 5.1 SE 15 22 8 12 1018.2 1017.0 0.0
27/04:30am 17.6 13.7 7.1 50 5.3 SE 17 22 9 12 1018.2 1017.0 0.0
27/04:00am 17.4 13.7 6.4 48 5.5 SE 15 24 8 13 1018.3 1017.1 0.0
27/03:30am 16.7 13.4 6.4 50 5.1 SE 13 20 7 11 1018.4 1017.2 0.0
27/03:00am 15.7 13.9 7.3 57 4.2 ENE 6 11 3 6 1018.6 1017.4 0.0
27/02:30am 15.3 13.6 7.5 59 3.9 NNE 6 7 3 4 1018.7 1017.5 0.0
27/02:00am 16.0 14.0 7.0 55 4.5 ENE 7 11 4 6 1018.9 1017.7 0.0
27/01:30am 16.6 14.5 6.5 51 5.0 ENE 7 9 4 5 1019.1 1017.9 0.0
27/01:00am 17.1 15.2 6.5 49 5.3 NE 6 11 3 6 1019.1 1017.9 0.0
27/12:30am 17.6 15.0 5.9 46 5.8 ENE 9 11 5 6 1019.1 1017.9 0.0
27/12:00am 15.8 13.7 6.5 54 4.6 E 7 9 4 5 1019.3 1018.2 0.0
 
Date/Time
CDT
Temp
°C
App
Temp
°C
Dew
Point
°C
Rel
Hum
%
Delta-T
°C
Wind Press
QNH
hPa
Press
MSL
hPa
Rain since
9am
mm
Dir  Spd
km/h
Gust
km/h
Spd
kts
Gust
kts
26/11:30pm 15.9 14.0 6.6 54 4.6 E 6 7 3 4 1019.2 1018.0 0.0
26/11:00pm 15.1 13.7 7.3 59 3.9 NE 4 6 2 3 1019.3 1018.2 0.0
26/10:30pm 16.4 15.3 7.0 53 4.7 ESE 2 9 1 5 1019.4 1018.3 0.0
26/10:00pm 17.4 15.5 7.4 52 5.1 SE 7 11 4 6 1019.4 1018.3 0.0
26/09:30pm 18.7 16.1 6.1 43 6.3 SE 9 13 5 7 1019.2 1018.0 0.0
26/09:00pm 20.2 16.4 3.9 34 7.9 ESE 13 19 7 10 1018.7 1017.5 0.0
26/08:30pm 21.3 17.6 2.3 28 9.0 SE 11 17 6 9 1018.5 1017.3 0.0
26/08:00pm 22.0 18.5 1.1 25 9.7 ESE 9 15 5 8 1018.1 1016.9 0.0
26/07:30pm 24.6 20.8 -0.7 19 11.6 SE 9 11 5 6 1017.7 1016.6 0.0
26/07:00pm 26.1 21.1 -4.3 13 13.2 SE 13 20 7 11 1017.6 1016.5 0.0
26/06:30pm 26.8 21.6 -6.1 11 13.9 ESE 13 19 7 10 1017.5 1016.4 0.0
26/06:00pm 27.6 23.1 -6.4 10 14.4 SE 9 13 5 7 1017.5 1016.4 0.0
26/05:30pm 27.4 22.3 -9.1 8 14.7 ESE 11 20 6 11 1017.4 1016.3 0.0
26/05:00pm 28.2 23.8 -5.6 10 14.6 SSE 9 17 5 9 1017.2 1016.1 0.0
26/04:30pm 27.6 23.3 -4.7 11 14.1 SE 9 15 5 8 1017.4 1016.3 0.0
26/04:00pm 27.9 23.6 -4.9 11 14.3 E 9 13 5 7 1017.5 1016.4 0.0
26/03:30pm 26.9 22.8 -3.1 14 13.4 ESE 9 17 5 9 1017.8 1016.7 0.0
26/03:00pm 26.9 23.2 -3.1 14 13.4 ENE 7 15 4 8 1018.2 1017.0 0.0
26/02:30pm 26.0 21.7 -1.7 16 12.6 NE 11 19 6 10 1018.6 1017.4 0.0
26/02:00pm 24.7 20.7 0.3 20 11.4 E 11 17 6 9 1018.9 1017.7 0.0
26/01:30pm 24.4 20.8 0.8 21 11.1 E 9 17 5 9 1019.2 1018.0 0.0
26/01:00pm 24.1 20.5 2.7 24 10.4 SE 11 17 6 9 1019.5 1018.4 0.0
26/12:30pm 22.7 19.5 3.1 27 9.5 E 9 20 5 11 1019.9 1018.8 0.0
26/12:00pm 21.9 18.6 4.5 32 8.6 NE 11 19 6 10 1020.1 1019.0 0.0
26/11:30am 21.3 18.2 5.6 36 7.9 NE 11 15 6 8 1020.4 1019.3 0.0
26/11:00am 20.0 16.6 5.8 39 7.1 ENE 13 19 7 10 1020.6 1019.5 0.0
26/10:30am 19.1 16.5 6.1 42 6.5 E 9 19 5 10 1020.7 1019.6 0.0
26/10:00am 18.1 15.2 6.5 46 5.8 ENE 11 17 6 9 1021.0 1019.9 0.0
26/09:30am 16.7 13.6 7.2 53 4.8 E 13 19 7 10 1021.1 1020.0 0.0
26/09:00am 14.8 11.9 6.7 58 4.0 E 11 17 6 9 1021.2 1020.1 0.0
26/08:30am 13.8 10.9 6.6 62 3.5 ESE 11 15 6 8 1021.1 1020.0 0.0
26/08:00am 12.1 8.4 6.2 67 2.8 ESE 15 22 8 12 1021.0 1019.9 0.0
26/07:30am 10.9 7.5 5.8 71 2.4 ESE 13 22 7 12 1020.9 1019.8 0.0
26/07:00am 10.4 7.0 5.7 72 2.2 E 13 20 7 11 1020.7 1019.6 0.0
26/06:30am 10.5 7.5 5.8 72 2.2 E 11 19 6 10 1020.5 1019.4 0.0
26/06:00am 10.9 8.2 5.8 71 2.4 E 9 19 5 10 1020.3 1019.2 0.0
26/05:30am 11.3 8.6 5.8 69 2.6 NE 9 15 5 8 1020.0 1018.9 0.0
26/05:00am 11.6 8.6 5.9 68 2.7 ENE 11 17 6 9 1019.8 1018.7 0.0
26/04:30am 11.6 9.4 6.1 69 2.6 NNE 7 15 4 8 1019.7 1018.6 0.0
26/04:00am 12.2 9.6 6.1 66 2.9 ESE 9 20 5 11 1019.8 1018.7 0.0
26/03:30am 12.5 9.2 6.5 67 2.9 ESE 13 26 7 14 1020.0 1018.9 0.0
26/03:00am 12.9 9.2 6.5 65 3.1 SE 15 26 8 14 1020.1 1019.0 0.0
26/02:30am 13.1 8.9 7.4 68 2.8 SE 19 33 10 18 1020.1 1019.0 0.0
26/02:00am 13.4 8.7 7.8 69 2.8 SE 22 37 12 20 1020.3 1019.2 0.0
26/01:30am 13.4 8.5 8.5 72 2.5 SE 24 37 13 20 1020.6 1019.5 0.0
26/01:00am 13.6 9.1 8.5 71 2.6 SE 22 35 12 19 1020.8 1019.7 0.0
26/12:30am 13.8 8.9 8.5 70 2.7 SE 24 37 13 20 1021.0 1019.9 0.0
26/12:00am 14.0 9.3 7.8 66 3.1 SE 22 35 12 19 1021.2 1020.1 0.0
 
Date/Time
CDT
Temp
°C
App
Temp
°C
Dew
Point
°C
Rel
Hum
%
Delta-T
°C
Wind Press
QNH
hPa
Press
MSL
hPa
Rain since
9am
mm
Dir  Spd
km/h
Gust
km/h
Spd
kts
Gust
kts
25/11:30pm 13.8 9.6 8.2 69 2.8 SE 20 35 11 19 1021.6 1020.5 0.0
25/11:00pm 13.4 12.0 8.7 73 2.4 SSW 6 11 3 6 1022.1 1020.9 0.0
25/10:30pm 14.3 11.5 8.4 67 3.0 SSW 13 22 7 12 1022.3 1021.1 0.0
25/10:00pm 14.5 11.6 8.2 66 3.2 S 13 19 7 10 1022.3 1021.1 0.0
25/09:30pm 14.8 11.6 8.5 66 3.2 SSE 15 20 8 11 1022.2 1021.0 0.0
25/09:00pm 15.3 13.0 9.1 66 3.2 S 11 19 6 10 1022.1 1020.9 0.0
25/08:30pm 15.8 13.2 9.3 65 3.4 SSE 13 20 7 11 1021.7 1020.6 0.0
25/08:00pm 16.8 13.7 8.7 59 4.2 SSE 15 24 8 13 1021.6 1020.5 0.0
25/07:30pm 18.2 14.1 7.9 51 5.3 SSE 19 26 10 14 1021.4 1020.3 0.0
25/07:00pm 19.5 15.1 7.5 45 6.2 SSE 20 28 11 15 1021.3 1020.2 0.0
25/06:30pm 20.4 15.5 7.0 41 6.9 SSE 22 30 12 16 1021.3 1020.2 0.0
25/06:00pm 21.1 16.9 5.9 37 7.7 SE 17 24 9 13 1021.2 1020.1 0.0
25/05:30pm 21.6 16.3 6.6 37 7.7 S 24 33 13 18 1021.2 1020.1 0.0
25/05:00pm 22.4 17.9 6.2 35 8.3 SSE 19 30 10 16 1021.3 1020.2 0.0
25/04:30pm 22.5 17.9 5.5 33 8.6 SSE 19 28 10 15 1021.5 1020.4 0.0
25/04:00pm 22.9 18.3 5.6 32 8.8 SSE 19 32 10 17 1021.7 1020.6 0.0
25/03:30pm 23.0 18.8 5.5 32 8.9 SSE 17 30 9 16 1022.1 1020.9 0.0
25/03:00pm 22.8 18.0 5.7 33 8.7 SSE 20 32 11 17 1022.5 1021.4 0.0
25/02:30pm 22.2 17.8 5.0 32 8.6 SSE 17 32 9 17 1022.9 1021.8 0.0
25/02:00pm 21.5 18.3 6.7 38 7.6 SE 13 20 7 11 1023.4 1022.3 0.0
25/01:30pm 20.8 16.8 6.7 40 7.2 S 17 24 9 13 1023.5 1022.4 0.0
25/01:00pm 20.5 17.0 7.3 42 6.8 SE 15 28 8 15 1024.0 1022.9 0.0
25/12:30pm 19.6 15.0 6.6 42 6.6 SSE 20 30 11 16 1024.4 1023.3 0.0
25/12:00pm 18.8 13.7 6.2 43 6.3 SE 22 32 12 17 1024.7 1023.6 0.0
25/11:30am 19.0 14.6 6.7 44 6.2 ESE 19 28 10 15 1025.0 1023.9 0.0
25/11:00am 17.2 12.3 6.8 50 5.2 SE 22 35 12 19 1025.4 1024.3 0.0
25/10:30am 16.6 11.8 7.3 54 4.7 SE 22 39 12 21 1025.7 1024.6 0.0
25/10:00am 16.3 11.2 7.6 56 4.4 SE 24 35 13 19 1025.5 1024.4 0.0
25/09:30am 15.6 10.5 7.7 59 4.0 ESE 24 39 13 21 1025.5 1024.4 0.0
25/09:00am 14.5 10.3 8.4 67 3.1 ESE 20 32 11 17 1025.7 1024.6 0.0
25/08:30am 13.7 9.8 8.8 72 2.5 ESE 19 30 10 16 1025.7 1024.6 0.0
25/08:00am 12.7 8.3 7.6 71 2.5 ESE 20 32 11 17 1025.3 1024.2 0.0
25/07:30am 11.7 7.8 7.2 74 2.2 ESE 17 26 9 14 1025.1 1024.0 0.0
25/07:00am 11.5 7.6 6.9 73 2.2 ESE 17 28 9 15 1025.0 1023.9 0.0
25/06:30am 11.7 7.6 7.8 77 1.9 SE 19 30 10 16 1024.7 1023.6 0.0
25/06:00am 11.8 8.1 8.0 77 1.9 SE 17 33 9 18 1024.2 1023.1 0.0
25/05:30am 12.0 8.3 8.0 76 2.0 SE 17 28 9 15 1024.1 1023.0 0.0
25/05:00am 12.3 8.6 8.1 75 2.1 ESE 17 35 9 19 1023.9 1022.8 0.0
25/04:30am 12.6 8.4 8.2 74 2.2 SE 20 37 11 20 1024.0 1022.9 0.0
25/04:00am 12.8 8.3 8.4 74 2.2 SE 22 39 12 21 1024.0 1022.9 0.0
25/03:30am 13.0 7.4 8.6 74 2.2 SE 28 43 15 23 1024.0 1022.9 0.0
25/03:07am 13.2 6.9 8.9 75 2.2 SE 32 50 17 27 1023.8 1022.7 0.0
25/03:00am 13.2 6.7 8.9 75 2.2 SE 33 46 18 25 1023.9 1022.8 0.0
25/02:36am 13.3 7.1 9.2 76 2.1 SE 32 50 17 27 1023.9 1022.8 0.0
25/02:30am 13.3 6.9 9.4 77 2.0 SE 33 48 18 26 1024.0 1022.9 0.0
25/02:07am 13.3 7.2 9.8 79 1.8 SE 32 52 17 28 1024.0 1022.9 0.0
25/02:00am 13.3 7.2 9.8 79 1.8 SE 32 48 17 26 1024.0 1022.9 0.0
25/01:42am 13.4 7.7 9.7 78 1.9 SE 30 48 16 26 1024.1 1023.0 0.0
25/01:30am 13.3 7.9 9.6 78 1.9 SE 28 41 15 22 1024.2 1023.1 0.0
25/01:00am 13.5 8.5 9.4 76 2.1 SE 26 39 14 21 1024.5 1023.4 0.0
25/12:30am 13.7 8.6 9.2 74 2.3 SSE 26 39 14 21 1024.7 1023.6 0.0
25/12:00am 13.8 10.3 8.9 72 2.5 SSE 17 32 9 17 1025.1 1024.0 0.0
 
Date/Time
CDT
Temp
°C
App
Temp
°C
Dew
Point
°C
Rel
Hum
%
Delta-T
°C
Wind Press
QNH
hPa
Press
MSL
hPa
Rain since
9am
mm
Dir  Spd
km/h
Gust
km/h
Spd
kts
Gust
kts
24/11:30pm 13.6 12.1 9.3 75 2.2 SW 7 19 4 10 1025.4 1024.3 0.0
24/11:00pm 13.5 12.4 9.8 78 1.9 WSW 6 9 3 5 1025.5 1024.4 0.0
24/10:30pm 13.7 11.6 9.6 76 2.1 SW 11 17 6 9 1025.8 1024.7 0.0
24/10:00pm 13.9 11.3 9.2 73 2.4 SW 13 19 7 10 1025.7 1024.6 0.0
24/09:30pm 14.3 11.6 8.8 69 2.8 SW 13 22 7 12 1025.7 1024.6 0.0
24/09:00pm 14.7 11.5 8.6 67 3.1 SSW 15 32 8 17 1025.5 1024.4 0.0
24/08:30pm 15.1 11.9 8.4 64 3.4 S 15 30 8 16 1025.3 1024.2 0.0
24/08:00pm 15.9 11.8 8.5 61 3.8 SSE 20 32 11 17 1024.9 1023.8 0.0
24/07:30pm 17.1 12.6 8.4 56 4.5 SSE 22 33 12 18 1024.7 1023.6 0.0
24/07:00pm 18.0 13.0 7.9 51 5.2 SSE 24 37 13 20 1024.6 1023.5 0.0
24/06:30pm 18.9 13.5 7.9 49 5.7 SSE 26 35 14 19 1024.4 1023.3 0.0
24/06:00pm 20.1 15.3 7.3 43 6.6 SSE 22 33 12 18 1024.4 1023.3 0.0
24/05:30pm 21.0 16.1 6.8 39 7.3 SE 22 32 12 17 1024.2 1023.1 0.0

Latest Capital City Observations: Canberra | Sydney | Melbourne | Brisbane | Adelaide | Perth | Hobart | Darwin

Other Formats:

Comma delimited format used in spreadsheet applications
http://www.bom.gov.au/fwo/IDS60901/IDS60901.94681.axf

JavaScript Object Notation format (JSON) in row-major order
http://www.bom.gov.au/fwo/IDS60901/IDS60901.94681.json